< < Back
Terminal Aerodrome Forecast


Current Version              Previous Versions:   1  2  3  4  5  6  7  8  9  

Terminal Aerodrome Forecast

362
FTUS42 KGSP 101731
TAFGSP
TAF
KGSP 101731Z 1018/1118 27011G18KT P6SM SCT060
     FM110100 27007KT P6SM SCT100
     FM111100 25004KT P6SM FEW250=



Latest METAR

901
SAUS70 KWBC 111500 RRF
MTRGSP
METAR KGSP 111453Z 17004KT 10SM CLR 00/M08 A3019 RMK AO2 SLP231
T00001083 53018


USA.gov is the U.S. government's official web portal to all federal, state and local government web resources and services.